Language selection

Features

My Weather Profile Weather Topics  | 

Pacific - North Coast: Past 24 Hour Conditions

 

West Moresby - 46208

08:00 PM PDT 21 October 2019Buoy position: 52.52N 132.68W
Disclaimer

This table is a summary of hourly weather conditions for the past 24 hours.
Please note that these observations might not always be representative of weather conditions over their associated marine area.

Date / Time
(PDT)
Wind(knots) Wave height(m) Wave period(s) Pressure(kPa) Air tempC) Water tempC)
21 October 2019
20:00 W 39 gust 51 5.5 9.0 100.1 12 N/A
19:00 W 35 gust 45 4.0 8.0 99.9 12 N/A
18:00 WSW 31 gust 41 2.8 7.0 99.8 13 N/A
17:00 SW 27 gust 37 2.4 11.0 99.8 12 N/A
16:00 SSW 19 gust 23 2.2 6.0 99.8 12 N/A
15:00 SSW 19 gust 25 2.3 12.0 99.9 12 N/A
14:00 SW 19 gust 23 2.8 10.0 99.9 12 N/A
13:00 SSE 16 gust 19 3.0 6.0 99.9 12 N/A
12:00 SE 23 gust 31 2.8 6.0 100.0 11 N/A
11:00 SE 23 gust 31 2.7 12.0 100.1 11 N/A
10:00 SE 23 gust 27 2.7 10.0 100.3 11 N/A
9:00 SE 22 gust 25 2.6 11.0 100.4 11 N/A
8:00 SE 17 gust 22 2.8 11.0 100.4 11 N/A
7:00 SSE 12 gust 13 3.2 10.0 100.6 11 N/A
6:00 S 8 gust 10 3.5 12.0 100.6 11 N/A
5:00 S 8 gust 10 3.5 11.0 100.6 11 N/A
4:00 SE 8 gust 10 3.6 14.0 100.7 11 N/A
3:00 SE 4 gust 6 3.6 12.0 100.8 11 N/A
2:00 ESE 2 gust 4 3.9 14.0 100.9 11 N/A
1:00 E 4 gust 8 4.3 14.0 100.8 11 N/A
0:00 NNW 4 gust 6 4.3 14.0 100.8 11 N/A
20 October 2019
23:00 NNE 4 gust 8 4.1 12.0 100.8 11 N/A
22:00 NNW 8 gust 10 4.3 13.0 100.7 11 N/A
21:00 NW 13 gust 16 4.2 12.0 100.7 11 N/A
20:00 NW 16 gust 19 4.4 12.0 100.6 11 N/A

Zoom-in to make a selection

Map of Pacific - North Coast marine weather areas Middle Nomad - 46004 South Nomad - 46036 Dixon Entrance Central - 46145 South Moresby - 46147 Nanakwa Shoal - 46181 North Hecate Strait - 46183 North Nomad - 46184 South Hecate Strait - 46185 West Sea Otter - 46204 West Dixon Entrance - 46205 East Dellwood - 46207 West Moresby - 46208 Sartine Island Cape St.James Kindakun Rocks Langara Island Masset Municipal Airport Rose Spit Sandspit Airport Bella Bella Airport Bella Coola Airport Bonilla Island Cathedral Point Cumshewa Island Grey Islet Holland Rock Lucy Islands Lightstation Prince Rupert Airport
Legend:
buoy Buoy
land station Land Station

Pacific - North Coast Area

Another Region

What we are doing

Date modified: